Time;durP1;ratioP1;P1;durP2;ratioP2;P2;SDS_P1;SDS_P2;PMS_P1;PMS_P2;Temp;Humidity;BMP_temperature;BMP_pressure;BME280_temperature;BME280_humidity;BME280_pressure;Samples;Min_cycle;Max_cycle;Signal;HPM_P1;HPM_P2
2021/12/20 00:01:28;;;;;;;8.43;2.00;;;7.00;99.90;;;;;;4861796;29;20513;-83
2021/12/20 00:03:53;;;;;;;17.73;2.85;;;6.90;99.90;;;;;;4861806;29;20053;-83
2021/12/20 00:06:19;;;;;;;19.65;2.20;;;6.80;99.90;;;;;;4861734;29;20053;-83
2021/12/20 00:08:44;;;;;;;17.30;2.08;;;6.90;99.90;;;;;;4861620;29;20046;-83
2021/12/20 00:11:10;;;;;;;13.35;2.55;;;6.90;99.90;;;;;;4861904;29;20123;-83
2021/12/20 00:13:36;;;;;;;20.90;2.15;;;7.00;99.90;;;;;;4845371;29;20077;-83
2021/12/20 00:16:01;;;;;;;17.98;1.80;;;6.90;99.90;;;;;;4845125;29;20053;-83
2021/12/20 00:18:27;;;;;;;12.88;2.33;;;7.00;99.90;;;;;;4861661;29;20049;-83
2021/12/20 00:20:53;;;;;;;18.17;2.10;;;7.00;99.90;;;;;;4845359;29;20059;-83
2021/12/20 00:23:18;;;;;;;13.95;2.28;;;7.00;99.90;;;;;;4861624;29;20546;-83
2021/12/20 00:25:48;;;;;;;11.60;1.65;;;7.00;99.90;;;;;;4861309;29;20049;-83
2021/12/20 00:28:18;;;;;;;8.98;1.00;;;7.00;99.90;;;;;;4845244;29;20069;-83
2021/12/20 00:30:44;;;;;;;12.70;1.83;;;7.00;99.90;;;;;;4861702;29;20057;-83
2021/12/20 00:33:10;;;;;;;12.32;1.92;;;7.10;99.90;;;;;;4861564;29;20073;-83
2021/12/20 00:35:36;;;;;;;12.38;1.88;;;7.10;99.90;;;;;;4860595;29;20445;-85
2021/12/20 00:40:48;;;;;;;20.08;2.17;;;7.00;99.90;;;;;;4861497;29;20064;-86
2021/12/20 00:43:14;;;;;;;19.05;2.83;;;7.10;99.90;;;;;;4861362;29;20118;-82
2021/12/20 00:45:40;;;;;;;19.10;2.25;;;7.00;99.90;;;;;;4861212;29;20414;-82
2021/12/20 00:48:06;;;;;;;23.30;2.95;;;7.00;99.90;;;;;;4844782;29;20049;-82
2021/12/20 00:50:33;;;;;;;13.75;2.20;;;7.00;99.90;;;;;;4844544;29;20077;-82
2021/12/20 00:53:00;;;;;;;11.02;2.40;;;7.00;99.90;;;;;;4861152;29;20117;-82
2021/12/20 00:55:27;;;;;;;22.50;2.80;;;7.00;99.90;;;;;;4844665;29;20061;-82
2021/12/20 00:57:55;;;;;;;11.18;2.15;;;7.00;99.90;;;;;;4844852;29;20081;-82
2021/12/20 01:00:24;;;;;;;18.25;3.28;;;7.00;99.90;;;;;;4845023;29;20057;-82
2021/12/20 01:02:51;;;;;;;20.58;3.33;;;7.00;99.90;;;;;;4844818;29;20397;-82
2021/12/20 01:05:17;;;;;;;12.52;2.97;;;7.00;99.90;;;;;;4844359;29;20060;-82
2021/12/20 01:07:43;;;;;;;13.95;1.48;;;7.00;99.90;;;;;;4844405;29;20061;-82
2021/12/20 01:10:10;;;;;;;15.85;2.05;;;7.00;99.90;;;;;;4844511;29;20069;-82
2021/12/20 01:12:44;;;;;;;13.70;3.53;;;7.00;99.90;;;;;;4861424;29;20045;-82
2021/12/20 01:15:14;;;;;;;15.63;2.00;;;7.00;99.90;;;;;;4861171;29;20113;-82
2021/12/20 01:17:40;;;;;;;12.88;1.90;;;7.00;99.90;;;;;;4844584;29;20058;-82
2021/12/20 01:20:07;;;;;;;17.33;2.17;;;6.90;99.90;;;;;;4861110;29;20056;-82
2021/12/20 01:22:33;;;;;;;13.05;3.33;;;7.00;99.90;;;;;;4844604;29;20394;-82
2021/12/20 01:24:59;;;;;;;19.20;2.00;;;7.00;99.90;;;;;;4844364;29;20050;-82
2021/12/20 01:27:25;;;;;;;13.85;2.10;;;7.00;99.90;;;;;;4844714;29;20053;-81
2021/12/20 01:29:50;;;;;;;13.45;1.65;;;6.90;99.90;;;;;;4844474;29;20486;-82
2021/12/20 01:32:16;;;;;;;8.93;1.77;;;6.90;99.90;;;;;;4861056;29;20042;-82
2021/12/20 01:34:42;;;;;;;13.55;2.25;;;6.90;99.90;;;;;;4844511;29;20046;-82
2021/12/20 01:37:08;;;;;;;9.00;1.30;;;6.80;99.90;;;;;;4844600;29;20443;-82
2021/12/20 01:39:33;;;;;;;14.90;1.52;;;6.80;99.90;;;;;;4844530;29;20045;-82
2021/12/20 01:42:02;;;;;;;12.57;2.17;;;6.80;99.90;;;;;;4860938;29;20432;-82
2021/12/20 01:44:27;;;;;;;9.00;1.92;;;6.80;99.90;;;;;;4844509;29;20525;-82
2021/12/20 01:46:53;;;;;;;13.07;1.50;;;6.80;99.90;;;;;;4845789;29;20089;-82
2021/12/20 01:49:19;;;;;;;19.48;2.28;;;6.70;99.90;;;;;;4847609;29;20084;-82
2021/12/20 01:54:12;;;;;;;15.73;3.45;;;6.70;99.90;;;;;;4864180;29;20109;-81
2021/12/20 01:56:41;;;;;;;14.45;2.75;;;6.70;99.90;;;;;;4847816;29;20045;-82
2021/12/20 01:59:08;;;;;;;9.82;1.45;;;6.70;99.90;;;;;;4847490;29;20048;-82
2021/12/20 02:01:34;;;;;;;14.13;1.80;;;6.80;99.90;;;;;;4864077;29;20052;-82
2021/12/20 02:04:03;;;;;;;17.17;2.28;;;6.80;99.90;;;;;;4863871;29;20045;-82
2021/12/20 02:06:38;;;;;;;14.68;2.40;;;6.70;99.90;;;;;;4863642;29;20064;-82
2021/12/20 02:09:11;;;;;;;10.15;1.65;;;6.70;99.90;;;;;;4847385;29;20049;-82
2021/12/20 02:11:38;;;;;;;11.98;2.72;;;6.70;99.90;;;;;;4863847;29;20053;-82
2021/12/20 02:14:05;;;;;;;9.00;1.65;;;6.70;99.90;;;;;;4847356;29;20057;-82
2021/12/20 02:16:31;;;;;;;16.77;2.47;;;6.80;99.90;;;;;;4863802;29;20050;-82
2021/12/20 02:19:01;;;;;;;18.70;3.60;;;6.70;99.90;;;;;;4863813;29;20046;-82
2021/12/20 02:21:27;;;;;;;16.48;2.10;;;6.70;99.90;;;;;;4864177;29;20053;-82
2021/12/20 02:23:53;;;;;;;13.40;1.80;;;6.70;99.90;;;;;;4863696;29;20391;-82
2021/12/20 02:26:21;;;;;;;13.60;1.60;;;6.70;99.90;;;;;;4863550;29;20450;-82
2021/12/20 02:28:49;;;;;;;17.65;3.08;;;6.70;99.90;;;;;;4847046;29;20061;-82
2021/12/20 02:38:59;;;;;;;15.20;2.88;;;6.60;99.90;;;;;;4863415;29;20057;-82
2021/12/20 02:41:30;;;;;;;24.60;2.70;;;6.60;99.90;;;;;;4846644;29;20106;-82
2021/12/20 02:44:03;;;;;;;16.63;2.90;;;6.60;99.90;;;;;;4863284;29;20057;-82
2021/12/20 02:49:14;;;;;;;13.95;3.17;;;6.60;99.90;;;;;;4863051;29;20072;-82
2021/12/20 02:51:41;;;;;;;11.40;1.67;;;6.60;99.90;;;;;;4846772;29;20496;-82
2021/12/20 02:54:09;;;;;;;18.92;3.28;;;6.50;99.90;;;;;;4846449;29;20053;-82
2021/12/20 02:56:35;;;;;;;12.05;1.83;;;6.60;99.90;;;;;;4846393;29;20442;-82
2021/12/20 02:59:02;;;;;;;15.23;1.60;;;6.60;99.90;;;;;;4845532;29;20049;-82
2021/12/20 03:01:27;;;;;;;15.27;2.00;;;6.50;99.90;;;;;;4862959;29;20402;-82
2021/12/20 03:03:55;;;;;;;12.02;2.53;;;6.60;99.90;;;;;;4862775;29;20041;-82
2021/12/20 03:06:24;;;;;;;14.35;2.63;;;6.60;99.90;;;;;;4846151;29;20053;-82
2021/12/20 03:08:53;;;;;;;15.43;1.88;;;6.60;99.90;;;;;;4862666;29;20049;-82
2021/12/20 03:11:20;;;;;;;16.65;2.03;;;6.60;99.90;;;;;;4862918;29;20116;-82
2021/12/20 03:13:50;;;;;;;13.48;1.67;;;6.60;99.90;;;;;;4862942;29;20057;-82
2021/12/20 03:16:15;;;;;;;16.13;2.45;;;6.60;99.90;;;;;;4846436;29;20065;-82
2021/12/20 03:18:42;;;;;;;14.50;2.13;;;6.60;99.90;;;;;;4862782;29;20402;-82
2021/12/20 03:21:07;;;;;;;12.65;2.10;;;6.60;99.90;;;;;;4862573;29;20053;-82
2021/12/20 03:23:33;;;;;;;11.13;2.13;;;6.60;99.90;;;;;;4862684;29;20044;-82
2021/12/20 03:25:59;;;;;;;17.95;1.98;;;6.60;99.90;;;;;;4845877;29;20123;-82
2021/12/20 03:28:24;;;;;;;11.60;2.00;;;6.60;99.90;;;;;;4862559;29;20057;-82
2021/12/20 03:30:50;;;;;;;16.65;1.52;;;6.60;99.90;;;;;;4845902;29;20049;-82
2021/12/20 03:33:16;;;;;;;13.18;1.35;;;6.60;99.90;;;;;;4845906;29;20060;-82
2021/12/20 03:35:42;;;;;;;11.10;1.30;;;6.50;99.90;;;;;;4862753;29;20462;-82
2021/12/20 03:38:09;;;;;;;9.48;1.38;;;6.50;99.90;;;;;;4862340;29;20053;-82
2021/12/20 03:40:36;;;;;;;14.50;2.58;;;6.50;99.90;;;;;;4862289;29;20050;-81
2021/12/20 03:43:03;;;;;;;11.15;1.80;;;6.50;99.90;;;;;;4862313;29;20116;-82
2021/12/20 03:45:29;;;;;;;17.98;2.05;;;6.50;99.90;;;;;;4862653;29;20057;-82
2021/12/20 03:47:54;;;;;;;15.27;1.85;;;6.40;99.90;;;;;;4862225;29;20050;-82
2021/12/20 03:50:20;;;;;;;16.98;2.45;;;6.40;99.90;;;;;;4845673;29;20053;-82
2021/12/20 03:52:46;;;;;;;6.75;1.23;;;6.40;99.90;;;;;;4862035;29;20062;-82
2021/12/20 03:55:13;;;;;;;7.90;1.85;;;6.40;99.90;;;;;;4845481;29;20045;-82
2021/12/20 03:57:39;;;;;;;12.15;1.55;;;6.40;99.90;;;;;;4845611;29;20409;-82
2021/12/20 04:00:09;;;;;;;14.75;2.80;;;6.40;99.90;;;;;;4861954;29;20140;-82
2021/12/20 04:02:42;;;;;;;12.20;2.22;;;6.40;99.90;;;;;;4861364;29;20065;-82
2021/12/20 04:05:09;;;;;;;9.50;1.80;;;6.40;99.90;;;;;;4861793;29;20552;-82
2021/12/20 04:07:35;;;;;;;14.70;2.95;;;6.40;99.90;;;;;;4861513;29;20136;-82
2021/12/20 04:10:02;;;;;;;12.95;2.25;;;6.30;99.90;;;;;;4845064;29;20141;-86
2021/12/20 04:12:28;;;;;;;11.52;1.73;;;6.30;99.90;;;;;;4845218;29;20054;-86
2021/12/20 04:14:53;;;;;;;14.65;2.72;;;6.30;99.90;;;;;;4845209;29;20061;-85
2021/12/20 04:17:20;;;;;;;18.40;2.03;;;6.20;99.90;;;;;;4861801;29;20073;-85
2021/12/20 04:19:46;;;;;;;15.02;1.75;;;6.30;99.90;;;;;;4861748;29;20120;-86
2021/12/20 04:22:11;;;;;;;12.40;1.80;;;6.20;99.90;;;;;;4861708;29;20077;-84
2021/12/20 04:24:37;;;;;;;10.65;1.88;;;6.20;99.90;;;;;;4861607;29;20037;-83
2021/12/20 04:27:03;;;;;;;14.25;1.70;;;6.20;99.90;;;;;;4861605;29;20440;-84
2021/12/20 04:29:29;;;;;;;9.45;1.75;;;6.30;99.90;;;;;;4861593;29;20042;-83
2021/12/20 04:31:55;;;;;;;16.25;2.42;;;6.30;99.90;;;;;;4845087;29;20065;-84
2021/12/20 04:34:21;;;;;;;16.00;2.30;;;6.30;99.90;;;;;;4861425;29;20064;-84
2021/12/20 04:36:47;;;;;;;8.45;1.73;;;6.40;99.90;;;;;;4844938;29;20054;-84
2021/12/20 04:39:17;;;;;;;14.52;2.13;;;6.40;99.90;;;;;;4844896;29;20041;-85
2021/12/20 04:41:43;;;;;;;8.02;1.33;;;6.50;99.90;;;;;;4861435;29;20042;-84
2021/12/20 04:44:09;;;;;;;13.55;2.10;;;6.40;99.90;;;;;;4861497;29;20097;-84
2021/12/20 04:46:35;;;;;;;7.15;1.17;;;6.40;99.90;;;;;;4844697;29;20057;-84
2021/12/20 04:49:00;;;;;;;11.45;1.27;;;6.40;99.90;;;;;;4844787;29;20045;-85
2021/12/20 04:51:26;;;;;;;12.25;1.60;;;6.40;99.90;;;;;;4861244;29;20049;-84
2021/12/20 04:53:52;;;;;;;7.18;1.45;;;6.30;99.90;;;;;;4861373;29;20053;-84
2021/12/20 04:56:17;;;;;;;6.97;1.05;;;6.30;99.90;;;;;;4861312;29;20102;-84
2021/12/20 04:58:43;;;;;;;11.43;1.40;;;6.30;99.90;;;;;;4844575;29;20045;-85
2021/12/20 05:01:09;;;;;;;9.60;1.48;;;6.30;99.90;;;;;;4844588;29;20053;-85
2021/12/20 05:03:34;;;;;;;5.25;1.05;;;6.20;99.90;;;;;;4861148;29;20053;-85
2021/12/20 05:06:00;;;;;;;8.43;1.77;;;6.20;99.90;;;;;;4844390;29;20490;-84
2021/12/20 05:08:33;;;;;;;7.38;1.20;;;6.20;99.90;;;;;;4844347;29;20424;-84
2021/12/20 05:11:00;;;;;;;12.07;2.00;;;6.20;99.90;;;;;;4844439;29;20132;-84
2021/12/20 05:13:26;;;;;;;10.73;1.33;;;6.10;99.90;;;;;;4844429;29;20064;-84
2021/12/20 05:15:51;;;;;;;8.35;1.35;;;6.10;99.90;;;;;;4844480;29;20057;-84
2021/12/20 05:18:17;;;;;;;10.70;1.30;;;6.10;99.90;;;;;;4844520;29;20052;-84
2021/12/20 05:20:43;;;;;;;10.00;1.05;;;6.10;99.90;;;;;;4844549;29;20109;-84
2021/12/20 05:23:09;;;;;;;6.05;1.17;;;6.10;99.90;;;;;;4848109;29;20057;-84
2021/12/20 05:25:36;;;;;;;10.77;1.52;;;6.00;99.90;;;;;;4847839;29;20057;-84
2021/12/20 05:28:02;;;;;;;10.73;1.52;;;6.00;99.90;;;;;;4864704;29;20108;-84
2021/12/20 05:30:28;;;;;;;7.05;1.33;;;6.00;99.90;;;;;;4847772;29;20061;-84
2021/12/20 05:32:54;;;;;;;14.32;1.85;;;5.90;99.90;;;;;;4864531;29;20061;-84
2021/12/20 05:35:21;;;;;;;9.05;1.38;;;5.90;99.90;;;;;;4864518;29;20132;-84
2021/12/20 05:37:48;;;;;;;10.90;1.35;;;5.80;99.90;;;;;;4848063;29;20116;-84
2021/12/20 05:40:15;;;;;;;9.40;1.10;;;5.80;99.90;;;;;;4847889;29;20053;-84
2021/12/20 05:42:41;;;;;;;9.88;1.50;;;5.80;99.90;;;;;;4864444;29;20178;-84
2021/12/20 05:45:09;;;;;;;7.05;1.27;;;5.80;99.90;;;;;;4864351;29;20049;-84
2021/12/20 05:47:34;;;;;;;8.32;0.93;;;5.90;99.90;;;;;;4864283;29;20069;-84
2021/12/20 05:50:01;;;;;;;10.32;1.58;;;5.80;99.90;;;;;;4847909;29;20053;-84
2021/12/20 05:52:26;;;;;;;7.90;1.00;;;5.80;99.90;;;;;;4847872;29;20121;-84
2021/12/20 05:54:52;;;;;;;5.97;1.15;;;5.80;99.90;;;;;;4847473;29;20053;-84
2021/12/20 05:57:18;;;;;;;10.23;1.33;;;5.70;99.90;;;;;;4864177;29;20053;-84
2021/12/20 05:59:43;;;;;;;9.25;1.35;;;5.70;99.90;;;;;;4847753;29;20053;-84
2021/12/20 06:02:09;;;;;;;7.63;1.35;;;5.60;99.90;;;;;;4863963;29;20057;-84
2021/12/20 06:04:35;;;;;;;10.02;1.40;;;5.60;99.90;;;;;;4847348;29;20505;-85
2021/12/20 06:07:01;;;;;;;8.68;1.38;;;5.60;99.90;;;;;;4847193;29;20069;-82
2021/12/20 06:09:28;;;;;;;5.43;1.30;;;5.50;99.90;;;;;;4847175;29;20068;-82
2021/12/20 06:11:54;;;;;;;6.15;1.23;;;5.50;99.90;;;;;;4847206;29;20057;-82
2021/12/20 06:14:20;;;;;;;8.00;1.48;;;5.50;99.90;;;;;;4863587;29;20402;-82
2021/12/20 06:16:46;;;;;;;6.03;1.58;;;5.40;99.90;;;;;;4863881;29;20045;-82
2021/12/20 06:19:11;;;;;;;6.78;0.82;;;5.40;99.90;;;;;;4863775;29;20041;-82
2021/12/20 06:21:37;;;;;;;7.60;1.48;;;5.40;99.90;;;;;;4863652;29;20050;-82
2021/12/20 06:24:03;;;;;;;8.32;1.58;;;5.40;99.90;;;;;;4863500;29;20057;-82
2021/12/20 06:26:29;;;;;;;10.90;1.80;;;5.40;99.90;;;;;;4863417;29;20096;-82
2021/12/20 06:28:54;;;;;;;9.63;1.33;;;5.30;99.90;;;;;;4863606;29;20144;-82
2021/12/20 06:31:20;;;;;;;8.43;1.30;;;5.30;99.90;;;;;;4847037;29;20057;-82
2021/12/20 06:33:46;;;;;;;7.78;1.95;;;5.20;99.90;;;;;;4863229;29;20056;-82
2021/12/20 06:36:12;;;;;;;12.65;1.63;;;5.10;99.90;;;;;;4863526;29;20494;-82
2021/12/20 06:38:44;;;;;;;16.92;1.50;;;5.00;99.90;;;;;;4863517;29;20054;-82
2021/12/20 06:41:10;;;;;;;11.38;2.30;;;5.00;99.90;;;;;;4863455;29;20077;-82
2021/12/20 06:43:36;;;;;;;6.15;0.93;;;4.90;99.90;;;;;;4863442;29;20045;-82
2021/12/20 06:46:02;;;;;;;8.77;0.98;;;4.90;99.90;;;;;;4863260;29;20049;-82
2021/12/20 06:48:27;;;;;;;7.82;1.63;;;4.70;99.90;;;;;;4846669;29;20528;-82
2021/12/20 06:50:53;;;;;;;9.75;1.40;;;4.70;99.90;;;;;;4863160;29;20052;-82
2021/12/20 06:53:19;;;;;;;7.68;2.10;;;4.60;99.90;;;;;;4863034;29;20136;-82
2021/12/20 06:55:45;;;;;;;9.93;2.40;;;4.60;99.90;;;;;;4863039;29;20140;-82
2021/12/20 06:58:10;;;;;;;16.83;2.83;;;4.50;99.90;;;;;;4846421;29;20046;-82
2021/12/20 07:00:36;;;;;;;10.77;2.10;;;4.40;99.90;;;;;;4846938;29;20049;-82
2021/12/20 07:03:02;;;;;;;14.00;2.92;;;4.30;99.90;;;;;;4862996;29;20390;-82
2021/12/20 07:05:28;;;;;;;12.75;2.80;;;4.20;99.90;;;;;;4846049;29;20053;-82
2021/12/20 07:07:54;;;;;;;14.05;3.40;;;4.10;99.90;;;;;;4862646;29;20109;-82
2021/12/20 07:10:20;;;;;;;12.38;2.17;;;4.10;99.90;;;;;;4862787;29;20057;-82
2021/12/20 07:12:46;;;;;;;7.57;2.17;;;4.00;99.90;;;;;;4862760;29;20053;-82
2021/12/20 07:15:14;;;;;;;13.38;2.60;;;4.00;99.90;;;;;;4862841;29;20094;-82
2021/12/20 07:17:40;;;;;;;11.85;2.53;;;3.90;99.90;;;;;;4862728;29;20529;-82
2021/12/20 07:20:07;;;;;;;10.90;3.05;;;3.90;99.90;;;;;;4862677;29;20512;-82
2021/12/20 07:22:33;;;;;;;14.73;5.82;;;3.80;99.90;;;;;;4846136;29;20062;-82
2021/12/20 07:24:59;;;;;;;9.55;4.75;;;3.80;99.90;;;;;;4862468;29;20090;-82
2021/12/20 07:27:25;;;;;;;17.08;4.63;;;3.70;99.90;;;;;;4845798;29;20057;-82
2021/12/20 07:29:51;;;;;;;15.30;4.03;;;3.60;99.90;;;;;;4862429;29;20096;-82
2021/12/20 07:32:17;;;;;;;23.25;3.22;;;3.60;99.90;;;;;;4845870;29;20071;-82
2021/12/20 07:34:42;;;;;;;10.35;3.15;;;3.50;99.90;;;;;;4861765;29;20536;-82
2021/12/20 07:37:08;;;;;;;15.25;3.33;;;3.40;99.90;;;;;;4844486;29;20050;-82
2021/12/20 07:39:34;;;;;;;13.57;3.35;;;3.40;99.90;;;;;;4845836;29;20050;-82
2021/12/20 07:42:00;;;;;;;9.70;2.40;;;3.40;99.90;;;;;;4862248;29;20128;-82
2021/12/20 07:44:26;;;;;;;14.93;3.83;;;3.30;99.90;;;;;;4861656;29;20053;-82
2021/12/20 07:46:52;;;;;;;10.40;3.03;;;3.30;99.90;;;;;;4862077;29;20053;-82
2021/12/20 07:49:19;;;;;;;14.35;3.22;;;3.20;99.90;;;;;;4845327;29;20053;-82
2021/12/20 07:51:45;;;;;;;17.98;2.30;;;3.10;99.90;;;;;;4862071;29;20049;-82
2021/12/20 07:54:11;;;;;;;19.70;2.47;;;3.10;99.90;;;;;;4845254;29;20049;-82
2021/12/20 07:56:36;;;;;;;14.65;2.55;;;3.00;99.90;;;;;;4861866;29;20045;-82
2021/12/20 07:59:03;;;;;;;14.95;2.92;;;3.00;99.90;;;;;;4845184;29;20498;-82
2021/12/20 08:01:31;;;;;;;12.30;2.17;;;3.00;99.90;;;;;;4845190;29;20397;-82
2021/12/20 08:03:57;;;;;;;12.43;2.25;;;3.00;99.90;;;;;;4861683;29;20099;-83
2021/12/20 08:06:22;;;;;;;10.82;2.30;;;3.00;99.90;;;;;;4862258;29;20081;-82
2021/12/20 08:08:48;;;;;;;8.88;1.55;;;2.90;99.90;;;;;;4861456;29;20502;-82
2021/12/20 08:11:17;;;;;;;16.25;2.17;;;2.90;99.90;;;;;;4845092;29;20095;-82
2021/12/20 08:13:45;;;;;;;9.52;1.70;;;2.90;99.90;;;;;;4845092;29;20085;-82
2021/12/20 08:16:20;;;;;;;22.50;3.90;;;2.80;99.90;;;;;;4845097;29;20045;-83
2021/12/20 08:18:48;;;;;;;13.82;2.90;;;2.80;99.90;;;;;;4861646;29;20092;-83
2021/12/20 08:21:15;;;;;;;15.65;2.13;;;2.80;99.90;;;;;;4861373;29;20114;-82
2021/12/20 08:23:41;;;;;;;13.88;2.88;;;2.80;99.90;;;;;;4844782;29;20379;-82
2021/12/20 08:26:08;;;;;;;14.80;3.40;;;2.70;99.90;;;;;;4861356;29;20554;-82
2021/12/20 08:28:35;;;;;;;12.40;2.65;;;2.70;99.90;;;;;;4861357;29;20044;-83
2021/12/20 08:31:06;;;;;;;10.15;1.90;;;2.70;99.90;;;;;;4844696;29;20064;-83
2021/12/20 08:33:32;;;;;;;10.48;1.55;;;2.70;99.90;;;;;;4861605;29;20049;-84
2021/12/20 08:36:10;;;;;;;14.30;2.30;;;2.70;99.90;;;;;;4844841;29;20064;-84
2021/12/20 08:38:35;;;;;;;12.05;2.40;;;2.70;99.90;;;;;;4861498;29;20046;-84
2021/12/20 08:41:02;;;;;;;12.45;2.58;;;2.70;99.90;;;;;;4845027;29;20398;-84
2021/12/20 08:43:29;;;;;;;16.00;2.95;;;2.70;99.90;;;;;;4863909;29;20136;-83
2021/12/20 08:45:56;;;;;;;12.43;2.03;;;2.70;99.90;;;;;;4851231;29;20459;-83
2021/12/20 08:48:21;;;;;;;11.77;2.40;;;2.70;99.90;;;;;;4861198;29;20056;-83
2021/12/20 08:50:47;;;;;;;9.23;1.67;;;2.70;99.90;;;;;;4844374;29;20132;-83
2021/12/20 08:53:13;;;;;;;12.77;2.38;;;2.70;99.90;;;;;;4844354;29;20049;-82
2021/12/20 08:55:39;;;;;;;10.10;2.92;;;2.70;99.90;;;;;;4844532;29;20141;-84
2021/12/20 08:58:06;;;;;;;10.35;2.20;;;2.70;99.90;;;;;;4848314;29;20126;-84
2021/12/20 09:00:33;;;;;;;8.32;2.55;;;2.70;99.90;;;;;;4848162;29;20080;-84
2021/12/20 09:03:01;;;;;;;17.77;2.03;;;2.70;99.90;;;;;;4864981;29;20117;-83
2021/12/20 09:05:28;;;;;;;15.95;2.08;;;2.80;99.90;;;;;;4847895;29;20490;-82
2021/12/20 09:07:56;;;;;;;11.50;2.58;;;2.80;99.90;;;;;;4847889;29;20117;-83
2021/12/20 09:10:22;;;;;;;6.28;2.20;;;2.80;99.90;;;;;;4864706;29;20057;-83
2021/12/20 09:12:48;;;;;;;8.20;1.60;;;2.90;99.90;;;;;;4848011;29;20046;-84
2021/12/20 09:15:17;;;;;;;17.83;1.77;;;2.90;99.90;;;;;;4848077;29;20049;-82
2021/12/20 09:17:44;;;;;;;14.82;2.88;;;3.00;99.90;;;;;;4864679;29;20049;-83
2021/12/20 09:20:10;;;;;;;14.43;4.05;;;3.00;99.90;;;;;;4848003;29;20157;-82
2021/12/20 09:22:48;;;;;;;19.95;4.43;;;3.10;99.90;;;;;;4864284;29;20397;-82
2021/12/20 09:25:14;;;;;;;11.25;3.47;;;3.20;99.90;;;;;;4847919;29;20053;-82
2021/12/20 09:27:40;;;;;;;16.88;4.32;;;3.30;99.90;;;;;;4848143;29;20068;-83
2021/12/20 09:30:06;;;;;;;16.50;4.63;;;3.40;99.90;;;;;;4864429;29;20073;-83
2021/12/20 09:32:32;;;;;;;15.23;4.03;;;3.40;99.90;;;;;;4847593;29;20142;-83
2021/12/20 09:34:58;;;;;;;11.60;3.30;;;3.60;99.90;;;;;;4864345;29;20095;-84
2021/12/20 09:37:24;;;;;;;14.77;3.67;;;3.60;99.90;;;;;;4847375;29;20045;-83
2021/12/20 09:39:53;;;;;;;12.50;3.38;;;3.70;99.90;;;;;;4864291;29;20045;-86
2021/12/20 09:42:19;;;;;;;16.20;3.50;;;3.80;99.90;;;;;;4847642;29;20124;-84
2021/12/20 09:44:45;;;;;;;17.15;3.70;;;3.90;99.90;;;;;;4847580;29;20053;-84
2021/12/20 09:47:11;;;;;;;18.73;2.95;;;4.00;99.90;;;;;;4847700;29;20136;-83
2021/12/20 09:49:37;;;;;;;21.65;3.95;;;4.10;99.90;;;;;;4863671;29;20509;-83
2021/12/20 09:52:03;;;;;;;19.70;2.70;;;4.20;99.90;;;;;;4847133;29;20069;-84
2021/12/20 09:54:29;;;;;;;18.65;2.42;;;4.30;99.90;;;;;;4864094;29;20073;-81
2021/12/20 09:56:57;;;;;;;18.77;3.10;;;4.40;99.90;;;;;;4847029;29;20106;-81
2021/12/20 09:59:26;;;;;;;16.02;2.58;;;4.50;99.90;;;;;;4847439;29;20140;-81
2021/12/20 10:01:53;;;;;;;20.20;3.88;;;4.60;99.90;;;;;;4847078;29;20516;-83
2021/12/20 10:04:20;;;;;;;27.83;4.53;;;4.70;99.90;;;;;;4863904;29;20056;-82
2021/12/20 10:06:51;;;;;;;21.83;2.80;;;4.90;99.90;;;;;;4863119;29;20058;-82
2021/12/20 10:09:25;;;;;;;19.20;4.55;;;5.10;99.90;;;;;;4863619;29;20061;-84
2021/12/20 10:12:08;;;;;;;26.08;4.53;;;5.10;99.90;;;;;;4863677;29;20045;-83
2021/12/20 10:14:54;;;;;;;18.45;3.25;;;5.20;99.90;;;;;;4863485;29;20045;-84
2021/12/20 10:17:22;;;;;;;20.35;2.40;;;5.40;99.90;;;;;;4846850;29;20049;-84
2021/12/20 10:19:48;;;;;;;20.25;3.60;;;5.40;99.90;;;;;;4863366;29;20053;-83
2021/12/20 10:22:32;;;;;;;16.73;2.45;;;5.50;99.90;;;;;;4863818;29;20050;-84
2021/12/20 10:24:58;;;;;;;19.10;2.92;;;5.60;99.90;;;;;;4846791;29;20084;-83
2021/12/20 10:27:36;;;;;;;23.33;3.40;;;5.70;99.90;;;;;;4863121;29;20097;-83
2021/12/20 10:30:29;;;;;;;20.83;4.00;;;5.80;99.90;;;;;;4863476;29;20110;-82
2021/12/20 10:32:56;;;;;;;15.52;3.20;;;5.90;99.90;;;;;;4846928;29;20049;-82
2021/12/20 10:35:25;;;;;;;20.60;4.07;;;6.00;99.90;;;;;;4863369;29;20041;-83
2021/12/20 10:37:54;;;;;;;19.45;4.38;;;6.10;99.90;;;;;;4846353;29;20058;-82
2021/12/20 10:40:20;;;;;;;20.95;3.55;;;6.10;99.90;;;;;;4846699;29;20057;-81
2021/12/20 10:42:46;;;;;;;20.35;3.15;;;6.20;99.90;;;;;;4846370;29;20144;-82
2021/12/20 10:45:18;;;;;;;26.35;4.30;;;6.30;99.90;;;;;;4863156;29;20132;-82
2021/12/20 10:47:47;;;;;;;20.85;3.85;;;6.40;99.90;;;;;;4862862;29;20485;-85
2021/12/20 10:50:42;;;;;;;20.90;2.92;;;6.40;99.90;;;;;;4846405;29;20057;-83
2021/12/20 10:53:17;;;;;;;19.63;3.47;;;6.60;99.90;;;;;;4845256;29;20210;-83
2021/12/20 10:55:48;;;;;;;21.67;2.97;;;6.60;99.90;;;;;;4846434;29;20516;-84
2021/12/20 10:58:36;;;;;;;14.68;2.60;;;6.70;99.90;;;;;;4846026;29;20086;-85
2021/12/20 11:01:11;;;;;;;20.45;2.97;;;6.70;99.90;;;;;;4846197;29;20064;-85
2021/12/20 11:03:39;;;;;;;20.92;2.92;;;6.80;99.90;;;;;;4862661;29;20064;-85
2021/12/20 11:11:29;;;;;;;21.80;3.92;;;7.00;99.90;;;;;;4862486;29;20561;-84
2021/12/20 11:13:58;;;;;;;16.27;2.75;;;7.10;99.90;;;;;;4845795;29;20137;-85
2021/12/20 11:16:27;;;;;;;22.63;3.85;;;7.20;99.90;;;;;;4846057;29;20057;-83
2021/12/20 11:19:23;;;;;;;15.32;2.72;;;7.20;99.90;;;;;;4844980;29;20567;-88
2021/12/20 11:22:02;;;;;;;22.27;3.30;;;7.30;99.90;;;;;;4845626;29;20082;-85
2021/12/20 11:24:32;;;;;;;18.73;3.90;;;7.40;99.90;;;;;;4846071;29;20077;-83
2021/12/20 11:27:00;;;;;;;16.08;3.03;;;7.30;99.90;;;;;;4845497;29;20050;-84
2021/12/20 11:29:26;;;;;;;20.60;3.60;;;7.40;99.90;;;;;;4845799;29;20053;-84
2021/12/20 11:31:53;;;;;;;23.25;4.95;;;7.40;99.90;;;;;;4845746;29;20501;-83
2021/12/20 11:34:21;;;;;;;30.00;4.28;;;7.50;99.90;;;;;;4862310;29;20049;-84
2021/12/20 11:36:47;;;;;;;18.45;2.72;;;7.50;99.90;;;;;;4862241;29;20110;-84
2021/12/20 11:39:13;;;;;;;21.00;3.22;;;7.50;99.90;;;;;;4845589;29;20085;-85
2021/12/20 11:41:39;;;;;;;18.58;3.28;;;7.50;99.90;;;;;;4845549;29;20517;-86
2021/12/20 11:44:07;;;;;;;26.35;3.95;;;7.50;99.90;;;;;;4845250;29;20054;-84
2021/12/20 11:46:59;;;;;;;30.95;3.05;;;7.50;99.90;;;;;;4862022;29;20049;-83
2021/12/20 11:49:26;;;;;;;17.95;3.00;;;7.50;99.90;;;;;;4845689;29;20065;-83
2021/12/20 11:52:03;;;;;;;24.67;2.80;;;7.50;99.90;;;;;;4861980;29;20042;-83
2021/12/20 11:54:43;;;;;;;19.52;3.22;;;7.50;99.90;;;;;;4845283;29;20109;-83
2021/12/20 11:57:27;;;;;;;19.13;3.15;;;7.50;99.90;;;;;;4845329;29;20450;-83
2021/12/20 11:59:55;;;;;;;19.42;2.92;;;7.50;99.90;;;;;;4861895;29;20050;-84
2021/12/20 12:02:34;;;;;;;18.88;3.20;;;7.50;99.90;;;;;;4861906;29;20045;-84
2021/12/20 12:05:06;;;;;;;19.15;4.53;;;7.50;99.90;;;;;;4863916;29;20191;-80
2021/12/20 12:07:37;;;;;;;21.70;3.53;;;7.40;99.90;;;;;;4855839;29;20062;-85
2021/12/20 12:10:15;;;;;;;16.98;3.65;;;7.40;99.90;;;;;;4843098;29;20137;-86
2021/12/20 12:12:43;;;;;;;21.52;3.30;;;7.40;99.90;;;;;;4841776;29;20121;-87
2021/12/20 12:15:20;;;;;;;21.48;4.25;;;7.40;99.90;;;;;;4853065;29;20060;-86
2021/12/20 12:17:48;;;;;;;22.73;4.10;;;7.30;99.90;;;;;;4860421;29;20099;-87
2021/12/20 12:20:34;;;;;;;23.80;4.72;;;7.40;99.90;;;;;;4860319;29;20073;-88
2021/12/20 12:23:17;;;;;;;15.73;2.80;;;7.30;99.90;;;;;;4861434;29;20054;-87
2021/12/20 12:25:47;;;;;;;19.30;3.45;;;7.30;99.90;;;;;;4859849;29;20479;-88
2021/12/20 12:28:14;;;;;;;21.42;5.10;;;7.30;99.90;;;;;;4860439;29;20521;-86
2021/12/20 12:30:42;;;;;;;17.45;3.70;;;7.30;99.90;;;;;;4859943;29;20102;-87
2021/12/20 12:33:13;;;;;;;15.20;2.95;;;7.40;99.90;;;;;;4857947;29;20052;-87
2021/12/20 12:35:39;;;;;;;25.75;9.32;;;7.40;99.90;;;;;;4851494;29;20049;-86
2021/12/20 12:38:16;;;;;;;21.65;4.75;;;7.30;99.90;;;;;;4846167;29;20056;-87
2021/12/20 12:40:43;;;;;;;17.85;3.08;;;7.40;99.90;;;;;;4851814;29;20505;-86
2021/12/20 12:43:09;;;;;;;17.52;3.22;;;7.40;99.90;;;;;;4842397;29;20434;-86
2021/12/20 12:46:02;;;;;;;13.82;3.05;;;7.50;99.90;;;;;;4843266;29;20049;-85
2021/12/20 12:48:43;;;;;;;22.40;4.50;;;7.50;99.90;;;;;;4839892;29;20096;-87
2021/12/20 12:51:18;;;;;;;19.52;3.53;;;7.50;99.90;;;;;;4841063;29;20050;-86
2021/12/20 12:53:45;;;;;;;13.93;3.72;;;7.50;99.90;;;;;;4842492;29;20510;-87
2021/12/20 12:56:30;;;;;;;22.50;4.30;;;7.50;99.90;;;;;;4855617;29;20064;-87
2021/12/20 12:59:19;;;;;;;21.75;4.65;;;7.50;99.90;;;;;;4841558;29;20174;-88
2021/12/20 13:01:57;;;;;;;12.25;3.10;;;7.50;99.90;;;;;;4842835;29;20058;-87
2021/12/20 13:05:07;;;;;;;23.90;5.63;;;7.50;99.90;;;;;;4841288;29;20050;-89
2021/12/20 13:08:03;;;;;;;17.90;4.30;;;7.40;99.90;;;;;;4847389;29;20049;-88
2021/12/20 13:10:39;;;;;;;18.95;4.07;;;7.50;99.90;;;;;;4859495;29;20101;-87
2021/12/20 13:13:29;;;;;;;23.80;3.55;;;7.50;99.90;;;;;;4844928;29;20486;-86
2021/12/20 13:16:04;;;;;;;18.38;3.55;;;7.40;99.90;;;;;;4859722;29;20045;-88